Terminal Aerodrome Forecast
Issued by NWS Buffalo, NY

Home | Current Version | Previous Version | Text Only | Print | Product List | Glossary On
Versions: 1 2 3 4 5 6 7 8 9 10 11 12 13 14 15 16 17 18 19 20 21 22 23 24 25 26 27
000
FTUS41 KBUF 301100
TAFROC
TAF
KROC 301120Z 3012/3112 22006KT P6SM VCSH SCT040 BKN080
     FM301300 22006KT P6SM SCT035 SCT080
     FM301700 22006KT P6SM VCSH BKN045 BKN080
     FM302000 24006KT P6SM SKC=

USA.gov is the U.S. government's official web portal to all federal, state and local government web resources and services.